KCLT/CLT METAR and TAF weather

Enter ICAO airport designator
Station Type Date Time Source
KCLT METAR 2020/04/07 15:52 UTC NOAA

KCLT 071552Z 23006KT 10SM BKN100 BKN140 BKN250 23/13 A3002 RMK AO2 SLP158 T02330128


Station Type Date Time Source
KCLT Decoded METAR 2020/04/07 15:52 UTC NOAA

CHARLOTTE/DOUGLAS INTERNATIONAL , NC, United States (KCLT) 35-13N 80-57W 220M
Apr 07, 2020 - 11:52 AM EDT / 2020.04.07 1552 UTC
Wind: from the SW (230 degrees) at 7 MPH (6 KT):0
Visibility: 10 mile(s):0
Sky conditions: mostly cloudy
Temperature: 73.9 F (23.3 C)
Dew Point: 55.0 F (12.8 C)
Relative Humidity: 51%
Pressure (altimeter): 30.02 in. Hg (1016 hPa)
ob: KCLT 071552Z 23006KT 10SM BKN100 BKN140 BKN250 23/13 A3002 RMK AO2 SLP158 T02330128
cycle: 16

Station Type Date Time Source
KCLT TAF 2020/04/07 16:58 UTC NOAA

TAF
AMD KCLT 071556Z 0716/0818 24008KT P6SM SCT060 BKN220
FM071900 23011G19KT P6SM VCSH SCT060 BKN220
TEMPO 0720/0722 4SM TSRA BR BKN050CB
FM080100 24007KT P6SM SCT070 BKN250
FM080700 25006KT P6SM FEW250

Example: see airport list